Lone Pine, Idaho
Current Conditions -  °F | °C
As of 1:55 AM on Wednesday 28 Jan 2015 (Local Time) from KLLJ Reporting Station
Haze Haze  
Wind Chill: 32°   Ceiling: 7500
Heat Index: 32°   Visibility: 4mi
Dew Point: 32°   Wind: 0mph
Humidity: 100%   Direction: NA
Pressure: 30.14"   Gusts: NA
Location:  44.5987°N, 113.355°W
Report Text: KLLJ 280855Z AUTO 00000KT 4SM UP BR FEW024 SCT029 OVC075 00/00 A3014 RMK AO2 RAE52UPB52 SLP218 P0001 60001 T00000000 51010
Loading
Personal Weather Stations






























Interactive Weather Map New forecast layout! Learn more

10-Day Weather Forecast

Advertisements
Track Severe Weather on mobile